Time;durP1;ratioP1;P1;durP2;ratioP2;P2;SDS_P1;SDS_P2;PMS_P1;PMS_P2;Temp;Humidity;BMP_temperature;BMP_pressure;BME280_temperature;BME280_humidity;BME280_pressure;Samples;Min_cycle;Max_cycle;Signal;HPM_P1;HPM_P2
2024/01/27 00:00:45;;;;;;;13.57;2.53;;;5.40;99.90;;;3.64;90.31;101678.13;4965777;28;20098;-83
2024/01/27 00:03:11;;;;;;;23.77;3.53;;;5.40;99.90;;;3.67;90.50;101695.50;4963915;28;21186;-84
2024/01/27 00:05:40;;;;;;;15.23;4.18;;;5.40;99.90;;;3.66;90.74;101644.28;4949491;28;20127;-83
2024/01/27 00:08:14;;;;;;;22.33;3.30;;;5.40;99.90;;;3.68;90.86;101679.00;4961194;28;20410;-83
2024/01/27 00:10:40;;;;;;;23.80;3.42;;;5.40;99.90;;;3.65;90.87;101669.47;4944150;28;20070;-83
2024/01/27 00:13:15;;;;;;;10.65;2.00;;;;;;;3.69;90.74;101715.47;4963195;28;20386;-82
2024/01/27 00:15:43;;;;;;;17.23;3.30;;;5.40;99.90;;;3.74;90.50;101685.91;4963877;28;20066;-83
2024/01/27 00:18:12;;;;;;;18.98;2.83;;;5.40;99.90;;;3.65;90.46;101694.63;4965152;28;20059;-84
2024/01/27 00:20:45;;;;;;;11.60;2.10;;;5.40;99.90;;;3.63;90.53;101693.78;4960794;28;20030;-83
2024/01/27 00:23:13;;;;;;;24.17;2.53;;;5.40;99.90;;;3.67;90.33;101703.31;4964720;28;20027;-83
2024/01/27 00:25:46;;;;;;;11.57;2.13;;;5.30;99.90;;;3.58;91.04;101716.34;4960065;28;20045;-83
2024/01/27 00:28:12;;;;;;;12.80;2.35;;;5.30;99.90;;;3.58;90.58;101718.97;4965591;28;20500;-83
2024/01/27 00:30:37;;;;;;;15.13;2.15;;;5.30;99.90;;;3.54;91.02;101738.06;4965398;28;20031;-83
2024/01/27 00:33:03;;;;;;;21.20;4.07;;;5.30;99.90;;;3.51;91.73;101749.34;4964410;28;20063;-81
2024/01/27 00:35:32;;;;;;;21.45;2.70;;;5.30;99.90;;;3.51;91.80;101740.69;4963107;28;20245;-83
2024/01/27 00:38:05;;;;;;;14.07;2.22;;;5.20;99.90;;;3.44;92.07;101730.28;4946471;28;20046;-84
2024/01/27 00:40:31;;;;;;;16.58;2.17;;;5.20;99.90;;;3.54;91.96;101728.50;4963969;28;20039;-84
2024/01/27 00:43:07;;;;;;;;;;;;;;;;;;;;;
2024/01/27 00:45:33;;;;;;;;;;;5.20;99.90;;;3.57;92.12;101736.34;4948495;28;20671;-82
2024/01/27 00:48:01;;;;;;;17.63;2.70;;;5.30;99.90;;;3.63;91.72;101738.06;4945394;28;20009;-83
2024/01/27 00:50:27;;;;;;;30.35;4.00;;;5.30;99.90;;;3.58;91.61;101745.00;4945223;28;20046;-83
2024/01/27 00:53:02;;;;;;;14.65;2.33;;;5.30;99.90;;;3.56;91.60;101763.22;4961596;28;20026;-83
2024/01/27 00:55:30;;;;;;;15.00;3.30;;;5.20;99.90;;;3.51;91.63;101764.97;4958176;28;20031;-83
2024/01/27 00:57:56;;;;;;;18.52;3.67;;;5.20;99.90;;;3.46;92.01;101761.53;4943631;28;20033;-84
2024/01/27 01:00:32;;;;;;;12.00;2.70;;;5.30;99.90;;;3.54;91.43;101748.47;4962898;28;20027;-84
2024/01/27 01:03:07;;;;;;;18.48;3.03;;;5.20;99.90;;;3.47;91.63;101745.88;4962157;28;20035;-82
2024/01/27 01:05:33;;;;;;;18.40;2.67;;;5.20;99.90;;;3.50;91.58;101747.63;4962497;28;20501;-84
2024/01/27 01:08:01;;;;;;;14.80;1.85;;;5.20;99.90;;;3.43;91.72;101736.34;4943915;28;20086;-83
2024/01/27 01:10:34;;;;;;;20.70;3.47;;;5.20;99.90;;;3.53;91.22;101752.81;4959934;28;20075;-83
2024/01/27 01:13:03;;;;;;;25.23;3.58;;;5.30;99.90;;;3.63;90.89;101748.50;4945501;28;20443;-84
2024/01/27 01:15:29;;;;;;;15.15;2.20;;;5.30;99.90;;;3.55;90.68;101747.63;4963940;28;20043;-84
2024/01/27 01:17:54;;;;;;;32.95;4.13;;;5.20;99.90;;;3.55;90.78;101760.66;4942510;28;20511;-83
2024/01/27 01:20:32;;;;;;;45.47;4.40;;;5.30;99.90;;;3.58;90.84;101758.03;4963054;28;20043;-83
2024/01/27 01:23:07;;;;;;;23.80;2.85;;;5.30;99.90;;;3.49;91.02;101757.16;4939067;29;20075;-82
2024/01/27 01:25:33;;;;;;;22.45;3.78;;;5.30;99.90;;;3.56;90.45;101767.59;4928453;29;20442;-83
2024/01/27 01:28:01;;;;;;;7.68;2.33;;;5.20;99.90;;;3.53;90.50;101692.94;4942753;29;20049;-83
2024/01/27 01:30:34;;;;;;;27.52;4.22;;;5.30;99.90;;;3.54;90.08;101756.28;4928983;29;20079;-83
2024/01/27 01:32:59;;;;;;;12.00;2.42;;;5.20;99.90;;;3.55;90.09;101758.03;4953362;28;20039;-83
2024/01/27 01:35:25;;;;;;;29.75;3.55;;;5.30;99.90;;;3.59;89.76;101762.38;4964111;28;20050;-82
2024/01/27 01:37:51;;;;;;;16.55;2.72;;;5.30;99.90;;;3.50;89.52;101776.28;4961645;28;20043;-84
2024/01/27 01:40:26;;;;;;;19.55;3.50;;;5.20;99.90;;;3.54;89.36;101764.97;4962965;28;20059;-81
2024/01/27 01:42:52;;;;;;;15.75;2.70;;;;;;;3.54;89.18;101767.56;4962666;28;20073;-82
2024/01/27 01:45:23;;;;;;;10.52;1.77;;;5.30;99.90;;;3.54;88.44;101772.78;4959696;28;20043;-84
2024/01/27 01:47:58;;;;;;;24.67;3.63;;;5.20;99.90;;;3.52;89.05;101760.63;4956488;28;20135;-84
2024/01/27 01:50:23;;;;;;;8.02;1.40;;;5.20;99.90;;;3.54;88.55;101791.00;4963003;28;20054;-82
2024/01/27 01:53:14;;;;;;;13.65;3.22;;;5.20;99.90;;;3.51;88.56;101749.34;4964819;28;21256;-84
2024/01/27 01:55:40;;;;;;;13.82;2.33;;;5.20;99.90;;;3.54;88.77;101779.72;4967455;28;20030;-83
2024/01/27 01:58:06;;;;;;;17.80;2.38;;;5.30;99.90;;;3.55;88.47;101787.56;4963378;28;20039;-83
2024/01/27 02:00:32;;;;;;;11.95;2.53;;;5.20;99.90;;;3.46;88.78;101774.53;4964474;28;20034;-83
2024/01/27 02:02:58;;;;;;;12.63;2.30;;;5.20;99.90;;;3.49;89.00;101801.44;4963291;28;20038;-83
2024/01/27 02:05:24;;;;;;;13.27;2.20;;;5.20;99.90;;;3.51;89.47;101804.03;4965304;28;20117;-83
2024/01/27 02:08:02;;;;;;;23.23;3.22;;;5.20;99.90;;;3.49;89.41;101819.66;4963380;28;20086;-84
2024/01/27 02:10:30;;;;;;;22.95;3.47;;;5.20;99.90;;;3.45;89.99;101815.31;4963580;28;20038;-83
2024/01/27 02:13:33;;;;;;;28.60;3.90;;;5.20;99.90;;;3.44;90.26;101831.81;4964798;28;20031;-82
2024/01/27 02:16:02;;;;;;;14.68;3.03;;;5.20;99.90;;;3.46;90.91;101826.63;4954681;28;20047;-83
2024/01/27 02:18:35;;;;;;;17.95;2.30;;;5.20;99.90;;;3.41;91.63;101813.59;4964020;28;20039;-84
2024/01/27 02:21:03;;;;;;;27.15;3.08;;;5.10;99.90;;;3.37;92.10;101834.41;4965338;28;20047;-82
2024/01/27 02:23:32;;;;;;;8.32;2.63;;;5.10;99.90;;;3.38;91.77;101838.75;4945305;28;20027;-82
2024/01/27 02:26:08;;;;;;;14.02;2.38;;;5.10;99.90;;;3.31;92.58;101830.09;4963603;28;20031;-83
2024/01/27 02:28:35;;;;;;;25.15;3.40;;;5.00;99.90;;;3.32;92.96;101790.16;4947901;28;20122;-82
2024/01/27 02:31:24;;;;;;;19.33;3.55;;;5.10;99.90;;;3.31;92.98;101848.31;4964993;28;20444;-84
2024/01/27 02:33:50;;;;;;;24.20;3.40;;;5.00;99.90;;;3.33;93.80;101854.38;4958348;28;20440;-83
2024/01/27 02:36:15;;;;;;;34.00;3.28;;;5.10;99.90;;;3.41;94.13;101873.50;4972654;28;20037;-82
2024/01/27 02:38:44;;;;;;;18.27;3.38;;;5.10;99.90;;;3.34;94.70;101857.84;4961368;28;20035;-83
2024/01/27 02:41:30;;;;;;;16.85;2.78;;;5.10;99.90;;;3.26;95.64;101852.63;4960119;28;20154;-83
2024/01/27 02:43:55;;;;;;;9.98;2.20;;;5.00;99.90;;;3.32;95.55;101857.84;4947228;28;20121;-82
2024/01/27 02:46:21;;;;;;;15.15;4.13;;;5.00;99.90;;;3.34;96.46;101878.69;4964256;28;20871;-82
2024/01/27 02:48:47;;;;;;;20.13;3.15;;;5.10;99.90;;;3.38;96.60;101885.63;4965257;28;20031;-83
2024/01/27 02:51:13;;;;;;;17.65;2.60;;;5.10;99.90;;;3.44;97.36;101885.66;4963264;28;20405;-82
2024/01/27 02:53:46;;;;;;;12.00;2.85;;;5.10;99.90;;;3.42;97.71;101885.63;4964962;28;20046;-83
2024/01/27 02:56:11;;;;;;;18.45;2.70;;;5.10;99.90;;;3.40;97.95;101887.34;4961683;28;20061;-83
2024/01/27 02:58:40;;;;;;;17.58;2.22;;;5.10;99.90;;;3.40;98.06;101896.91;4965674;28;20062;-83
2024/01/27 03:01:15;;;;;;;29.38;2.85;;;5.20;99.90;;;3.47;98.01;101886.50;4963954;28;20191;-81
2024/01/27 03:03:43;;;;;;;29.90;3.63;;;5.20;99.90;;;3.48;97.89;101896.06;4964295;28;20037;-83
2024/01/27 03:06:09;;;;;;;18.60;3.25;;;5.20;99.90;;;3.43;98.47;101876.94;4962848;28;20039;-83
2024/01/27 03:08:35;;;;;;;22.83;2.95;;;5.20;99.90;;;3.43;98.22;101876.94;4961735;28;20039;-82
2024/01/27 03:11:08;;;;;;;17.42;3.47;;;5.10;99.90;;;3.38;98.48;101896.03;4964116;28;20035;-84
2024/01/27 03:13:33;;;;;;;27.13;4.38;;;5.10;99.90;;;3.39;99.24;101872.63;4960268;28;20130;-83
2024/01/27 03:16:02;;;;;;;13.77;2.78;;;5.10;99.90;;;3.33;99.32;101885.63;4965204;28;20042;-83
2024/01/27 03:18:36;;;;;;;16.05;2.92;;;5.10;99.90;;;3.31;99.62;101907.31;4963583;28;20536;-83
2024/01/27 03:21:03;;;;;;;14.05;2.33;;;;;;;3.35;99.46;101904.72;4963197;28;20031;-83
2024/01/27 03:23:31;;;;;;;11.00;2.40;;;5.00;99.90;;;3.25;100.00;101895.16;4964457;28;20559;-82
2024/01/27 03:26:04;;;;;;;20.02;3.88;;;5.00;99.90;;;3.32;100.00;101898.63;4962044;28;20080;-82
2024/01/27 03:28:30;;;;;;;15.60;2.78;;;;;;;3.27;100.00;101915.09;4960905;28;20406;-83
2024/01/27 03:30:56;;;;;;;21.67;3.28;;;5.00;99.90;;;3.32;100.00;101911.66;4964178;28;20047;-82
2024/01/27 03:33:22;;;;;;;23.70;3.05;;;5.00;99.90;;;3.33;100.00;101926.41;4964226;28;20050;-83
2024/01/27 03:35:56;;;;;;;13.48;2.05;;;;;;;3.26;100.00;101931.59;4962024;28;20058;-82
2024/01/27 03:38:22;;;;;;;21.77;2.92;;;5.00;99.90;;;3.22;100.00;101937.66;4963968;28;20379;-82
2024/01/27 03:40:50;;;;;;;30.23;3.63;;;4.70;99.90;;;3.27;100.00;101940.28;4963855;28;20106;-84
2024/01/27 03:43:25;;;;;;;15.82;2.30;;;5.00;99.90;;;3.28;100.00;101940.28;4960681;28;20122;-82
2024/01/27 03:45:54;;;;;;;21.17;3.07;;;5.00;99.90;;;3.29;100.00;101948.97;4959555;28;20557;-82
2024/01/27 03:48:36;;;;;;;21.13;3.85;;;5.00;99.90;;;3.27;100.00;101948.94;4962521;28;20085;-84
2024/01/27 03:51:13;;;;;;;10.10;2.10;;;5.00;99.90;;;3.31;100.00;101936.81;4963765;28;20030;-84
2024/01/27 03:53:49;;;;;;;;;;;;;;;;;;;;;
2024/01/27 03:56:15;;;;;;;;;;;5.00;99.90;;;3.39;100.00;101971.56;4960612;28;20031;-82
2024/01/27 03:58:43;;;;;;;19.87;3.60;;;5.10;99.90;;;3.38;100.00;101941.16;4945083;28;20012;-82
2024/01/27 04:01:20;;;;;;;16.58;2.47;;;5.10;99.90;;;3.36;100.00;101983.69;4946229;28;20034;-82
2024/01/27 04:03:46;;;;;;;24.92;3.35;;;5.10;99.90;;;3.40;100.00;101993.25;4942679;28;20126;-82
2024/01/27 04:06:11;;;;;;;18.02;2.97;;;5.10;99.90;;;3.36;100.00;101994.09;4962737;28;20603;-83
2024/01/27 04:08:46;;;;;;;20.58;2.63;;;5.10;99.90;;;3.42;100.00;102005.41;4959969;28;20036;-82
2024/01/27 04:11:24;;;;;;;14.75;2.35;;;5.10;99.90;;;3.40;100.00;102001.06;4962148;28;20106;-83
2024/01/27 04:13:53;;;;;;;21.23;2.60;;;5.10;99.90;;;3.44;100.00;102013.22;4964757;28;20031;-83
2024/01/27 04:16:19;;;;;;;15.50;2.47;;;;;;;3.47;100.00;102015.84;4963055;28;20037;-84
2024/01/27 04:18:54;;;;;;;18.50;2.88;;;5.20;99.90;;;3.55;100.00;102021.09;4961265;28;20058;-82
2024/01/27 04:21:22;;;;;;;14.25;3.10;;;5.20;99.90;;;3.59;100.00;102028.03;4961620;28;20070;-83
2024/01/27 04:23:56;;;;;;;28.17;3.85;;;5.30;99.90;;;3.60;100.00;102030.63;4963575;28;20030;-83
2024/01/27 04:26:24;;;;;;;27.05;5.18;;;5.30;99.90;;;3.63;100.00;102030.66;4928255;28;20489;-82
2024/01/27 04:28:52;;;;;;;16.67;3.10;;;5.30;99.90;;;3.62;100.00;102025.44;4960848;28;20062;-83
2024/01/27 04:31:23;;;;;;;27.67;2.58;;;5.30;99.90;;;3.65;100.00;102052.38;4945951;28;20091;-83
2024/01/27 04:33:49;;;;;;;21.77;2.95;;;5.30;99.90;;;3.62;100.00;102065.38;4962801;28;20039;-83
2024/01/27 04:36:14;;;;;;;27.13;2.53;;;5.30;99.90;;;3.59;100.00;102059.31;4946600;28;20037;-82
2024/01/27 04:38:43;;;;;;;21.88;3.00;;;5.30;99.90;;;3.61;100.00;102062.78;4961485;28;20039;-83
2024/01/27 04:41:16;;;;;;;19.52;2.75;;;5.30;99.90;;;3.61;100.00;102068.00;4964346;28;20031;-84
2024/01/27 04:43:42;;;;;;;16.25;3.08;;;5.30;99.90;;;3.60;100.00;102076.66;4959781;28;20694;-84
2024/01/27 04:46:18;;;;;;;;;;;;;;;;;;;;;
2024/01/27 04:48:44;;;;;;;22.15;3.88;;;5.30;99.90;;;3.57;100.00;102069.69;4946870;28;20033;-82
2024/01/27 04:51:10;;;;;;;25.67;3.28;;;5.30;99.90;;;3.54;100.00;102071.41;4962313;28;20043;-83
2024/01/27 04:53:35;;;;;;;31.05;4.00;;;5.20;99.90;;;3.55;100.00;102075.78;4960107;28;20035;-82
2024/01/27 04:56:07;;;;;;;19.90;3.17;;;5.30;99.90;;;3.56;100.00;102067.09;4962214;28;20045;-82
2024/01/27 04:58:36;;;;;;;23.50;4.10;;;5.30;99.90;;;3.67;100.00;102088.81;4928450;28;20417;-82
2024/01/27 05:01:02;;;;;;;11.80;3.08;;;5.40;99.90;;;3.68;100.00;102093.19;4945383;28;20038;-82
2024/01/27 05:03:31;;;;;;;23.48;3.92;;;5.40;99.90;;;3.70;100.00;102094.06;4943482;28;20031;-82
2024/01/27 05:06:11;;;;;;;12.57;2.40;;;5.40;99.90;;;3.72;100.00;102107.97;4960651;28;20031;-82
2024/01/27 05:08:45;;;;;;;10.60;2.13;;;5.40;99.90;;;3.69;100.00;102105.34;4962126;28;20046;-82
2024/01/27 05:11:13;;;;;;;22.60;3.03;;;5.40;99.90;;;3.68;100.00;102108.81;4928797;28;20027;-83
2024/01/27 05:13:55;;;;;;;16.35;2.60;;;5.40;99.90;;;3.65;100.00;102117.50;4961015;28;20660;-83
2024/01/27 05:16:31;;;;;;;21.02;2.13;;;5.40;99.90;;;3.61;100.00;102118.34;4944374;28;20034;-82
2024/01/27 05:19:00;;;;;;;20.63;2.75;;;5.30;99.90;;;3.57;100.00;102113.13;4961498;28;20085;-82
2024/01/27 05:21:51;;;;;;;27.45;3.88;;;5.30;99.90;;;3.62;100.00;102095.75;4960808;28;20039;-81
2024/01/27 05:24:17;;;;;;;21.95;3.40;;;5.30;99.90;;;3.58;100.00;102120.06;4951920;28;20035;-82
2024/01/27 05:26:43;;;;;;;19.73;2.42;;;5.30;99.90;;;3.55;100.00;102118.31;4960915;28;20041;-82
2024/01/27 05:29:34;;;;;;;12.45;2.42;;;5.20;99.90;;;3.54;100.00;102128.72;4960736;28;20058;-82
2024/01/27 05:32:02;;;;;;;19.65;2.67;;;5.30;99.90;;;3.53;100.00;102142.59;4952631;28;20066;-83
2024/01/27 05:34:38;;;;;;;;;;;;;;;;;;;;;
2024/01/27 05:37:07;;;;;;;17.45;2.47;;;5.20;99.90;;;3.52;100.00;102146.97;5028360;23;20051;-87
2024/01/27 05:40:45;;;;;;;20.08;2.97;;;5.30;99.90;;;3.55;100.00;102159.97;4965475;28;20094;-87
2024/01/27 05:43:26;;;;;;;49.97;4.93;;;;;;;3.56;100.00;102179.94;4897107;29;20068;-86
2024/01/27 05:45:54;;;;;;;20.58;2.83;;;;;;;3.56;100.00;102160.84;4916808;29;20071;-87
2024/01/27 05:48:36;;;;;;;26.00;3.55;;;5.30;99.90;;;3.59;100.00;102171.28;4931875;29;20039;-86
2024/01/27 05:51:38;;;;;;;;;;;;;;;;;;;;;
2024/01/27 05:54:09;;;;;;;27.85;3.25;;;;;;;3.61;100.00;102177.38;4906570;29;20140;-86
2024/01/27 05:56:36;;;;;;;17.92;3.50;;;;;;;3.65;100.00;102184.31;4965577;23;20043;-86
2024/01/27 05:59:30;;;;;;;19.73;3.53;;;;;;;3.66;100.00;102186.09;4960400;28;20573;-86
2024/01/27 06:01:57;;;;;;;29.48;3.47;;;;;;;3.69;100.00;102196.50;4959707;28;20054;-88
2024/01/27 06:07:16;;;;;;;25.20;3.85;;;5.40;99.90;;;3.66;100.00;102192.16;4970379;23;20055;-88
2024/01/27 06:10:24;;;;;;;18.20;3.05;;;5.40;99.90;;;3.66;100.00;102193.91;4943411;28;20425;-88
2024/01/27 06:13:48;;;;;;;;;;;;;;;;;;;;;
2024/01/27 06:19:37;;;;;;;;;;;;;;;;;;;;;
2024/01/27 06:22:06;;;;;;;40.42;4.10;;;5.20;99.90;;;3.53;100.00;102211.19;4967675;28;20045;-89
2024/01/27 06:30:25;;;;;;;18.63;3.95;;;;;;;3.41;100.00;102221.50;4929114;29;20051;-88
2024/01/27 06:33:29;;;;;;;;;;;;;;;;;;;;;
2024/01/27 06:36:25;;;;;;;;;;;;;;;;;;;;;
2024/01/27 06:39:08;;;;;;;;;;;;;;;;;;;;;
2024/01/27 06:41:37;;;;;;;26.23;2.95;;;;;;;3.50;100.00;102258.06;4959779;28;20034;-88
2024/01/27 06:44:17;;;;;;;9.77;1.70;;;;;;;3.53;100.00;102250.25;4954526;28;20040;-88
2024/01/27 06:46:56;;;;;;;26.25;3.90;;;;;;;3.56;100.00;102262.41;4958969;28;20504;-88
2024/01/27 06:53:07;;;;;;;14.38;2.47;;;5.30;99.90;;;3.57;100.00;102261.56;4965773;28;20038;-87
2024/01/27 07:05:07;;;;;;;21.80;2.33;;;;;;;3.63;100.00;102306.78;4863382;29;20049;-87
2024/01/27 07:08:48;;;;;;;18.08;2.08;;;5.30;99.90;;;3.64;100.00;102318.06;4835596;29;20030;-87
2024/01/27 07:11:16;;;;;;;27.73;3.47;;;;;;;3.67;100.00;102313.75;4790699;29;20091;-87
2024/01/27 07:13:54;;;;;;;16.10;2.35;;;5.40;99.90;;;3.69;100.00;102331.97;4804359;29;20233;-88
2024/01/27 07:16:46;;;;;;;15.50;3.30;;;;;;;3.69;100.00;102322.44;5015177;23;20206;-88
2024/01/27 07:22:57;;;;;;;18.73;3.38;;;;;;;3.77;100.00;102340.72;4910379;29;20533;-88
2024/01/27 07:25:38;;;;;;;26.90;2.55;;;;;;;3.79;100.00;102339.00;4890282;29;20043;-89
2024/01/27 07:28:20;;;;;;;20.90;3.88;;;;;;;3.82;100.00;102359.91;4906595;29;20189;-89
2024/01/27 07:31:27;;;;;;;15.63;2.10;;;5.50;99.90;;;3.86;100.00;102353.81;4908886;29;20130;-88
2024/01/27 07:33:56;;;;;;;29.42;3.03;;;;;;;3.90;100.00;102365.16;4891770;29;20100;-90
2024/01/27 07:52:36;;;;;;;33.80;3.38;;;5.70;99.90;;;4.01;100.00;102402.59;4976542;28;20113;-88
2024/01/27 08:14:35;;;;;;;12.02;2.40;;;5.80;99.90;;;4.11;100.00;102434.81;4993944;28;20441;-89
2024/01/27 08:17:07;;;;;;;14.90;3.38;;;;;;;4.10;100.00;102433.06;5132241;23;20885;-88
2024/01/27 08:20:19;;;;;;;13.80;2.42;;;5.80;99.90;;;4.19;100.00;102437.47;4992828;28;20727;-91
2024/01/27 08:22:54;;;;;;;15.40;2.20;;;5.80;99.90;;;4.18;100.00;102436.59;4978974;28;20066;-88
2024/01/27 08:25:40;;;;;;;32.58;4.05;;;5.80;99.90;;;4.19;100.00;102454.00;4975540;28;20035;-89
2024/01/27 08:28:58;;;;;;;;;;;;;;;;;;;;;
2024/01/27 08:31:27;;;;;;;25.80;3.42;;;;;;;4.27;100.00;102473.16;4941993;29;20036;-88
2024/01/27 08:34:35;;;;;;;17.08;2.45;;;;;;;4.24;100.00;102470.53;4927159;29;20597;-87
2024/01/27 09:01:21;;;;;;;14.68;2.88;;;6.20;99.90;;;4.50;100.00;102496.81;4943704;29;20568;-88
2024/01/27 09:03:52;;;;;;;22.00;3.42;;;6.20;99.90;;;4.51;100.00;102502.91;4940527;29;20058;-83
2024/01/27 09:06:23;;;;;;;31.60;4.20;;;;;;;4.58;100.00;102506.41;4929634;29;20586;-82
2024/01/27 09:08:49;;;;;;;33.92;3.20;;;6.20;99.90;;;4.52;100.00;102497.69;4929311;29;20135;-83
2024/01/27 09:11:34;;;;;;;19.23;2.28;;;6.20;99.90;;;4.52;100.00;102494.22;4896151;29;20120;-82
2024/01/27 09:14:04;;;;;;;33.72;3.97;;;6.20;99.90;;;4.65;100.00;102509.09;4916531;29;20063;-83
2024/01/27 09:16:34;;;;;;;23.73;3.40;;;6.30;99.90;;;4.66;100.00;102510.81;4906021;29;20055;-83
2024/01/27 09:19:00;;;;;;;26.67;3.17;;;6.40;99.90;;;4.75;100.00;102517.84;4909060;29;20042;-84
2024/01/27 09:21:33;;;;;;;15.10;2.75;;;6.30;99.90;;;4.73;100.00;102511.75;4898650;29;20077;-82
2024/01/27 09:24:01;;;;;;;28.15;3.63;;;6.40;99.90;;;4.75;100.00;102530.88;4915674;29;20039;-84
2024/01/27 09:26:27;;;;;;;18.65;3.25;;;6.30;99.90;;;4.68;100.00;102535.19;4885418;29;20046;-83
2024/01/27 09:29:02;;;;;;;25.40;3.15;;;6.40;99.90;;;4.72;100.00;102531.75;4920271;29;20491;-84
2024/01/27 09:31:28;;;;;;;18.33;3.20;;;6.40;99.90;;;4.68;100.00;102527.38;4943637;28;20039;-82
2024/01/27 09:34:03;;;;;;;27.27;4.32;;;6.40;99.90;;;4.69;100.00;102529.13;4953852;28;20465;-82
2024/01/27 09:36:32;;;;;;;19.92;3.15;;;6.40;99.90;;;4.68;100.00;102532.59;4965803;28;20035;-84
2024/01/27 09:38:59;;;;;;;31.98;3.55;;;6.40;99.90;;;4.70;100.00;102525.63;4945162;28;20066;-82
2024/01/27 09:41:37;;;;;;;31.25;3.88;;;6.40;99.90;;;4.70;100.00;102541.31;4955824;28;20031;-83
2024/01/27 09:44:16;;;;;;;28.30;3.63;;;;;;;4.77;100.00;102549.16;4945193;28;20412;-84
2024/01/27 09:47:16;;;;;;;37.58;3.80;;;6.50;99.90;;;4.86;100.00;102541.38;4959443;28;20034;-86
2024/01/27 09:51:14;;;;;;;33.22;3.47;;;6.40;99.90;;;4.81;100.00;102548.34;4936261;28;20150;-86
2024/01/27 09:54:09;;;;;;;33.38;3.15;;;6.40;99.90;;;4.83;100.00;102559.66;4907809;29;20039;-86
2024/01/27 09:56:35;;;;;;;25.55;3.33;;;6.50;99.90;;;4.84;100.00;102549.25;4872483;29;20503;-85
2024/01/27 09:59:41;;;;;;;;;;;;;;;;;;;;;
2024/01/27 10:05:38;;;;;;;24.63;2.55;;;6.50;99.90;;;4.91;100.00;102560.59;4802673;29;20683;-86
2024/01/27 10:08:42;;;;;;;30.25;3.53;;;6.50;99.90;;;4.83;100.00;102552.69;4805681;29;20422;-85
2024/01/27 10:12:03;;;;;;;30.90;4.78;;;6.50;99.90;;;4.88;100.00;102565.78;4740473;30;20583;-85
2024/01/27 10:27:28;;;;;;;17.60;2.95;;;6.40;99.90;;;4.70;100.00;102562.19;5137986;27;20411;-84
2024/01/27 10:30:23;;;;;;;;;;;;;;;;;;;;;
2024/01/27 10:34:14;;;;;;;24.55;3.05;;;6.40;99.90;;;4.84;100.00;102567.50;5040822;28;20384;-85
2024/01/27 10:36:47;;;;;;;13.55;2.40;;;;;;;4.80;100.00;102565.75;4977423;28;20114;-85
2024/01/27 10:39:37;;;;;;;16.90;2.92;;;;;;;4.88;100.00;102565.78;4991940;28;20568;-85
2024/01/27 10:45:58;;;;;;;26.55;3.05;;;6.50;99.90;;;4.88;100.00;102571.00;4989132;28;20049;-84
2024/01/27 10:48:56;;;;;;;21.98;2.58;;;6.50;99.90;;;4.92;100.00;102576.28;4973657;28;20053;-84
2024/01/27 10:51:37;;;;;;;16.30;2.92;;;;;;;4.94;100.00;102568.44;4973849;28;20050;-85
2024/01/27 10:54:45;;;;;;;11.23;1.95;;;6.60;99.90;;;4.92;100.00;102578.88;4990695;28;20035;-85
2024/01/27 11:00:23;;;;;;;35.78;3.80;;;;;;;4.99;100.00;102585.00;4916350;29;20036;-85
2024/01/27 11:02:53;;;;;;;21.40;2.85;;;6.60;99.90;;;4.98;100.00;102603.25;4888154;29;20036;-85
2024/01/27 11:06:23;;;;;;;34.08;4.47;;;6.60;99.90;;;5.02;100.00;102605.03;4888913;29;20045;-84
2024/01/27 11:09:08;;;;;;;49.75;4.97;;;6.70;99.90;;;5.11;100.00;102605.94;4897649;29;20060;-85
2024/01/27 11:11:35;;;;;;;43.22;4.57;;;6.70;99.90;;;5.20;100.00;102605.13;4933128;28;20067;-84
2024/01/27 11:14:28;;;;;;;30.88;4.00;;;;;;;5.20;100.00;102609.50;4931800;29;20043;-85
2024/01/27 11:17:09;;;;;;;31.00;4.15;;;6.70;99.90;;;5.15;100.00;102612.09;4906819;29;20442;-84
2024/01/27 11:19:36;;;;;;;31.90;5.22;;;6.80;99.90;;;5.21;100.00;102608.66;4908393;29;20036;-85
2024/01/27 11:22:28;;;;;;;19.30;3.25;;;6.80;99.90;;;5.13;100.00;102616.41;4927364;28;20489;-84
2024/01/27 11:25:29;;;;;;;26.13;4.80;;;6.70;99.90;;;5.04;100.00;102606.78;4929216;28;20047;-85
2024/01/27 11:28:34;;;;;;;28.48;3.03;;;6.70;99.90;;;4.96;100.00;102603.25;4926466;29;20072;-85
2024/01/27 11:32:25;;;;;;;45.17;5.35;;;6.70;99.90;;;5.13;100.00;102612.06;4901862;29;20044;-86
2024/01/27 11:37:49;;;;;;;;;;;;;;;;;;;;;
2024/01/27 11:40:49;;;;;;;;;;;;;;;;;;;;;
2024/01/27 11:43:16;;;;;;;32.83;3.85;;;;;;;5.13;100.00;102622.50;5006306;28;20402;-84
2024/01/27 11:46:12;;;;;;;;;;;;;;;;;;;;;
2024/01/27 11:48:50;;;;;;;;;;;6.70;99.90;;;5.05;100.00;102631.16;4985038;28;20068;-83
2024/01/27 11:51:18;;;;;;;39.17;4.88;;;6.70;99.90;;;5.07;100.00;102635.53;4932512;29;19911;-84
2024/01/27 11:54:15;;;;;;;33.95;3.75;;;6.70;99.90;;;5.11;100.00;102626.84;4913450;29;20075;-84
2024/01/27 11:59:37;;;;;;;26.67;3.33;;;;;;;5.02;100.00;102632.00;4870983;29;20619;-83
2024/01/27 12:02:27;;;;;;;54.17;5.68;;;6.70;99.90;;;5.06;100.00;102627.69;4868600;29;20077;-84
2024/01/27 12:04:56;;;;;;;32.40;3.83;;;;;;;4.97;100.00;102628.50;4851517;29;20044;-83
2024/01/27 12:07:37;;;;;;;14.30;2.92;;;;;;;4.97;100.00;102628.50;4854197;29;20156;-83
2024/01/27 12:10:25;;;;;;;43.85;4.35;;;;;;;5.01;100.00;102629.38;4853618;29;20204;-84
2024/01/27 12:12:54;;;;;;;27.50;4.15;;;6.70;99.90;;;5.05;100.00;102637.25;4872699;29;20144;-85
2024/01/27 12:15:37;;;;;;;32.83;3.78;;;6.70;99.90;;;5.14;100.00;102633.84;4972493;23;20114;-83
2024/01/27 12:18:27;;;;;;;51.10;5.90;;;6.80;99.90;;;5.24;100.00;102640.00;5072687;28;20044;-84
2024/01/27 12:21:06;;;;;;;35.03;3.97;;;6.80;99.90;;;5.30;100.00;102637.41;5074809;28;20502;-84
2024/01/27 12:23:53;;;;;;;30.95;4.20;;;6.90;99.90;;;5.28;100.00;102629.56;5081629;28;20036;-84
2024/01/27 12:26:41;;;;;;;;;;;;;;;;;;;;;
2024/01/27 12:29:08;;;;;;;33.72;4.03;;;7.00;99.90;;;5.41;100.00;102640.97;5030602;28;20026;-83
2024/01/27 12:31:46;;;;;;;41.30;4.70;;;;;;;5.55;100.00;102652.38;5016285;28;20133;-84
2024/01/27 12:34:26;;;;;;;41.90;5.00;;;;;;;5.65;100.00;102650.66;5013687;28;20028;-82
2024/01/27 12:36:52;;;;;;;29.77;4.40;;;7.20;99.90;;;5.66;100.00;102652.41;5028252;28;20046;-81
2024/01/27 12:39:33;;;;;;;59.03;6.50;;;7.30;99.90;;;5.89;100.00;102660.34;4998545;28;20079;-81
2024/01/27 12:41:59;;;;;;;26.45;3.90;;;7.30;99.90;;;5.85;100.00;102663.84;5003702;28;20056;-81
2024/01/27 12:44:25;;;;;;;17.95;2.80;;;7.40;99.90;;;5.78;100.00;102669.88;5022794;28;20120;-81
2024/01/27 12:47:01;;;;;;;12.85;2.20;;;7.30;99.90;;;5.69;100.00;102675.06;4995777;28;20132;-82
2024/01/27 12:49:32;;;;;;;32.17;4.53;;;7.30;99.90;;;5.68;100.00;102669.00;5013992;28;20033;-82
2024/01/27 12:52:05;;;;;;;31.40;3.42;;;7.30;99.90;;;5.74;100.00;102675.97;4998547;28;20034;-82
2024/01/27 12:54:31;;;;;;;47.47;5.38;;;7.30;99.90;;;5.79;100.00;102673.38;5014149;28;20526;-82
2024/01/27 12:57:03;;;;;;;27.67;3.97;;;7.40;99.90;;;5.81;100.00;102669.91;5013655;28;20073;-80
2024/01/27 12:59:29;;;;;;;38.63;4.53;;;7.40;99.90;;;5.81;100.00;102666.41;5050462;28;20522;-81
2024/01/27 13:02:01;;;;;;;28.50;3.85;;;7.40;99.90;;;5.75;100.00;102665.53;5051036;28;20028;-81
2024/01/27 13:04:33;;;;;;;38.60;4.78;;;;;;;5.75;100.00;102667.28;5051489;28;20044;-81
2024/01/27 13:07:05;;;;;;;33.53;3.70;;;7.30;99.90;;;5.72;100.00;102673.38;5047397;28;20040;-81
2024/01/27 13:09:37;;;;;;;31.80;4.45;;;7.30;99.90;;;5.65;100.00;102668.09;5048924;28;20496;-82
2024/01/27 13:12:06;;;;;;;38.00;3.97;;;7.30;99.90;;;5.57;100.00;102665.41;5050763;28;20037;-82
2024/01/27 13:14:43;;;;;;;27.70;3.67;;;7.20;99.90;;;5.53;100.00;102656.72;5049628;28;20522;-82
2024/01/27 13:17:09;;;;;;;24.52;3.50;;;7.20;99.90;;;5.51;100.00;102657.56;5057124;28;20029;-82
2024/01/27 13:19:45;;;;;;;41.78;5.00;;;7.20;99.90;;;5.51;100.00;102663.66;5050754;28;20025;-80
2024/01/27 13:22:15;;;;;;;29.33;3.92;;;7.20;99.90;;;5.53;100.00;102669.78;5052575;28;20033;-81
2024/01/27 13:24:48;;;;;;;39.35;5.30;;;7.10;99.90;;;5.51;100.00;102674.13;5050277;28;20163;-81
2024/01/27 13:27:17;;;;;;;45.60;4.55;;;7.20;99.90;;;5.60;100.00;102677.66;5067235;28;20082;-80